sensor_id;sensor_type;location;lat;lon;timestamp;pressure;altitude;pressure_sealevel;temperature;humidity
79453;BME280;68899;52.116;5.404;2024-01-27T00:00:16;103492.31;;;3.28;81.01
79453;BME280;68899;52.116;5.404;2024-01-27T00:02:43;103489.69;;;3.25;80.60
79453;BME280;68899;52.116;5.404;2024-01-27T00:05:10;103493.16;;;3.24;80.78
79453;BME280;68899;52.116;5.404;2024-01-27T00:07:37;103502.66;;;3.22;80.80
79453;BME280;68899;52.116;5.404;2024-01-27T00:10:04;103495.69;;;3.21;80.87
79453;BME280;68899;52.116;5.404;2024-01-27T00:12:31;103493.09;;;3.21;81.09
79453;BME280;68899;52.116;5.404;2024-01-27T00:14:58;103503.50;;;3.21;80.61
79453;BME280;68899;52.116;5.404;2024-01-27T00:17:24;103496.53;;;3.16;80.97
79453;BME280;68899;52.116;5.404;2024-01-27T00:19:52;103500.00;;;3.16;80.75
79453;BME280;68899;52.116;5.404;2024-01-27T00:22:19;103502.59;;;3.15;80.44
79453;BME280;68899;52.116;5.404;2024-01-27T00:24:47;103493.03;;;3.14;80.75
79453;BME280;68899;52.116;5.404;2024-01-27T00:27:14;103497.31;;;3.11;80.60
79453;BME280;68899;52.116;5.404;2024-01-27T00:29:40;103496.44;;;3.09;80.95
79453;BME280;68899;52.116;5.404;2024-01-27T00:32:07;103493.84;;;3.09;80.86
79453;BME280;68899;52.116;5.404;2024-01-27T00:34:33;103494.72;;;3.10;81.16
79453;BME280;68899;52.116;5.404;2024-01-27T00:37:00;103487.78;;;3.10;80.85
79453;BME280;68899;52.116;5.404;2024-01-27T00:39:26;103499.91;;;3.08;80.91
79453;BME280;68899;52.116;5.404;2024-01-27T00:41:53;103505.06;;;3.05;81.18
79453;BME280;68899;52.116;5.404;2024-01-27T00:44:21;103509.41;;;3.06;81.01
79453;BME280;68899;52.116;5.404;2024-01-27T00:46:48;103492.94;;;3.04;80.83
79453;BME280;68899;52.116;5.404;2024-01-27T00:49:15;103493.75;;;3.03;81.22
79453;BME280;68899;52.116;5.404;2024-01-27T00:51:41;103486.81;;;3.02;80.93
79453;BME280;68899;52.116;5.404;2024-01-27T00:54:08;103486.81;;;3.02;80.85
79453;BME280;68899;52.116;5.404;2024-01-27T00:56:35;103493.75;;;3.02;81.22
79453;BME280;68899;52.116;5.404;2024-01-27T00:59:01;103492.78;;;2.95;81.26
79453;BME280;68899;52.116;5.404;2024-01-27T01:01:28;103494.47;;;2.92;80.76
79453;BME280;68899;52.116;5.404;2024-01-27T01:03:54;103502.28;;;2.90;80.95
79453;BME280;68899;52.116;5.404;2024-01-27T01:06:21;103495.31;;;2.89;81.01
79453;BME280;68899;52.116;5.404;2024-01-27T01:08:48;103501.38;;;2.88;81.32
79453;BME280;68899;52.116;5.404;2024-01-27T01:11:14;103496.13;;;2.85;81.25
79453;BME280;68899;52.116;5.404;2024-01-27T01:13:41;103506.50;;;2.83;80.72
79453;BME280;68899;52.116;5.404;2024-01-27T01:16:07;103507.38;;;2.84;80.71
79453;BME280;68899;52.116;5.404;2024-01-27T01:18:34;103504.78;;;2.84;81.26
79453;BME280;68899;52.116;5.404;2024-01-27T01:21:01;103512.53;;;2.79;81.04
79453;BME280;68899;52.116;5.404;2024-01-27T01:23:28;103513.34;;;2.77;81.12
79453;BME280;68899;52.116;5.404;2024-01-27T01:25:54;103515.09;;;2.78;81.01
79453;BME280;68899;52.116;5.404;2024-01-27T01:28:20;103521.22;;;2.80;81.10
79453;BME280;68899;52.116;5.404;2024-01-27T01:30:47;103515.16;;;2.81;81.14
79453;BME280;68899;52.116;5.404;2024-01-27T01:33:13;103498.69;;;2.82;81.29
79453;BME280;68899;52.116;5.404;2024-01-27T01:35:40;103500.44;;;2.83;80.88
79453;BME280;68899;52.116;5.404;2024-01-27T01:38:07;103509.97;;;2.82;80.88
79453;BME280;68899;52.116;5.404;2024-01-27T01:40:33;103500.41;;;2.80;81.12
79453;BME280;68899;52.116;5.404;2024-01-27T01:43:00;103496.88;;;2.76;81.06
79453;BME280;68899;52.116;5.404;2024-01-27T01:45:26;103501.16;;;2.71;81.20
79453;BME280;68899;52.116;5.404;2024-01-27T01:47:53;103508.97;;;2.71;80.97
79453;BME280;68899;52.116;5.404;2024-01-27T01:50:20;103503.75;;;2.70;81.10
79453;BME280;68899;52.116;5.404;2024-01-27T01:52:48;103514.13;;;2.70;80.91
79453;BME280;68899;52.116;5.404;2024-01-27T01:55:15;103517.53;;;2.66;81.09
79453;BME280;68899;52.116;5.404;2024-01-27T01:57:43;103516.63;;;2.64;81.12
79453;BME280;68899;52.116;5.404;2024-01-27T02:00:10;103514.03;;;2.64;81.18
79453;BME280;68899;52.116;5.404;2024-01-27T02:02:37;103526.19;;;2.65;81.16
79453;BME280;68899;52.116;5.404;2024-01-27T02:05:04;103526.16;;;2.62;81.26
79453;BME280;68899;52.116;5.404;2024-01-27T02:07:31;103513.09;;;2.59;81.12
79453;BME280;68899;52.116;5.404;2024-01-27T02:09:57;103513.97;;;2.59;81.46
79453;BME280;68899;52.116;5.404;2024-01-27T02:12:24;103513.94;;;2.58;81.17
79453;BME280;68899;52.116;5.404;2024-01-27T02:14:50;103515.69;;;2.60;81.20
79453;BME280;68899;52.116;5.404;2024-01-27T02:17:17;103512.19;;;2.57;81.23
79453;BME280;68899;52.116;5.404;2024-01-27T02:19:43;103505.25;;;2.55;81.41
79453;BME280;68899;52.116;5.404;2024-01-27T02:22:10;103513.84;;;2.51;81.34
79453;BME280;68899;52.116;5.404;2024-01-27T02:24:36;103516.41;;;2.48;81.49
79453;BME280;68899;52.116;5.404;2024-01-27T02:27:03;103505.13;;;2.46;81.52
79453;BME280;68899;52.116;5.404;2024-01-27T02:29:30;103508.59;;;2.45;81.91
79453;BME280;68899;52.116;5.404;2024-01-27T02:31:56;103519.88;;;2.47;81.70
79453;BME280;68899;52.116;5.404;2024-01-27T02:34:23;103511.22;;;2.48;81.79
79453;BME280;68899;52.116;5.404;2024-01-27T02:36:49;103500.81;;;2.48;81.74
79453;BME280;68899;52.116;5.404;2024-01-27T02:39:16;103510.34;;;2.49;81.64
79453;BME280;68899;52.116;5.404;2024-01-27T02:41:42;103506.88;;;2.49;82.01
79453;BME280;68899;52.116;5.404;2024-01-27T02:44:09;103508.63;;;2.48;82.17
79453;BME280;68899;52.116;5.404;2024-01-27T02:46:36;103507.75;;;2.48;82.17
79453;BME280;68899;52.116;5.404;2024-01-27T02:49:03;103516.38;;;2.45;82.87
79453;BME280;68899;52.116;5.404;2024-01-27T02:51:29;103522.47;;;2.47;82.73
79453;BME280;68899;52.116;5.404;2024-01-27T02:53:56;103520.72;;;2.46;82.25
79453;BME280;68899;52.116;5.404;2024-01-27T02:56:22;103525.94;;;2.48;82.65
79453;BME280;68899;52.116;5.404;2024-01-27T02:58:49;103522.47;;;2.49;82.69
79453;BME280;68899;52.116;5.404;2024-01-27T03:01:15;103520.75;;;2.49;82.70
79453;BME280;68899;52.116;5.404;2024-01-27T03:03:42;103522.50;;;2.50;83.18
79453;BME280;68899;52.116;5.404;2024-01-27T03:06:08;103520.78;;;2.51;83.10
79453;BME280;68899;52.116;5.404;2024-01-27T03:08:35;103526.88;;;2.53;82.89
79453;BME280;68899;52.116;5.404;2024-01-27T03:11:02;103531.22;;;2.54;83.06
79453;BME280;68899;52.116;5.404;2024-01-27T03:13:28;103521.72;;;2.54;83.02
79453;BME280;68899;52.116;5.404;2024-01-27T03:15:55;103526.91;;;2.54;82.67
79453;BME280;68899;52.116;5.404;2024-01-27T03:18:22;103533.81;;;2.54;82.95
79453;BME280;68899;52.116;5.404;2024-01-27T03:20:49;103529.50;;;2.54;82.55
79453;BME280;68899;52.116;5.404;2024-01-27T03:23:15;103519.97;;;2.53;82.96
79453;BME280;68899;52.116;5.404;2024-01-27T03:25:42;103510.44;;;2.54;83.03
79453;BME280;68899;52.116;5.404;2024-01-27T03:28:09;103516.50;;;2.54;83.47
79453;BME280;68899;52.116;5.404;2024-01-27T03:30:35;103521.69;;;2.53;83.54
79453;BME280;68899;52.116;5.404;2024-01-27T03:33:02;103521.63;;;2.50;82.80
79453;BME280;68899;52.116;5.404;2024-01-27T03:35:28;103513.81;;;2.48;82.52
79453;BME280;68899;52.116;5.404;2024-01-27T03:37:55;103513.81;;;2.48;82.58
79453;BME280;68899;52.116;5.404;2024-01-27T03:40:21;103513.78;;;2.47;82.64
79453;BME280;68899;52.116;5.404;2024-01-27T03:42:48;103513.81;;;2.48;83.25
79453;BME280;68899;52.116;5.404;2024-01-27T03:45:14;103517.25;;;2.47;83.46
79453;BME280;68899;52.116;5.404;2024-01-27T03:47:41;103512.91;;;2.45;83.69
79453;BME280;68899;52.116;5.404;2024-01-27T03:50:07;103523.31;;;2.45;83.16
79453;BME280;68899;52.116;5.404;2024-01-27T03:52:34;103529.34;;;2.44;83.37
79453;BME280;68899;52.116;5.404;2024-01-27T03:55:01;103528.44;;;2.42;83.28
79453;BME280;68899;52.116;5.404;2024-01-27T03:57:27;103532.75;;;2.41;83.82
79453;BME280;68899;52.116;5.404;2024-01-27T03:59:54;103531.91;;;2.42;84.10
79453;BME280;68899;52.116;5.404;2024-01-27T04:02:20;103535.34;;;2.41;83.71
79453;BME280;68899;52.116;5.404;2024-01-27T04:04:47;103525.81;;;2.40;84.10
79453;BME280;68899;52.116;5.404;2024-01-27T04:07:14;103525.81;;;2.42;84.20
79453;BME280;68899;52.116;5.404;2024-01-27T04:09:41;103522.38;;;2.43;83.62
79453;BME280;68899;52.116;5.404;2024-01-27T04:12:08;103529.34;;;2.44;84.26
79453;BME280;68899;52.116;5.404;2024-01-27T04:14:34;103537.16;;;2.44;84.14
79453;BME280;68899;52.116;5.404;2024-01-27T04:17:01;103541.47;;;2.43;84.20
79453;BME280;68899;52.116;5.404;2024-01-27T04:19:27;103538.81;;;2.42;84.40
79453;BME280;68899;52.116;5.404;2024-01-27T04:21:54;103538.81;;;2.40;83.67
79453;BME280;68899;52.116;5.404;2024-01-27T04:24:20;103532.72;;;2.40;84.39
79453;BME280;68899;52.116;5.404;2024-01-27T04:26:47;103531.00;;;2.39;83.84
79453;BME280;68899;52.116;5.404;2024-01-27T04:29:14;103531.84;;;2.38;84.70
79453;BME280;68899;52.116;5.404;2024-01-27T04:31:41;103533.59;;;2.39;84.41
79453;BME280;68899;52.116;5.404;2024-01-27T04:34:08;103541.38;;;2.39;84.17
79453;BME280;68899;52.116;5.404;2024-01-27T04:36:35;103542.25;;;2.39;84.13
79453;BME280;68899;52.116;5.404;2024-01-27T04:39:03;103545.69;;;2.37;84.30
79453;BME280;68899;52.116;5.404;2024-01-27T04:41:31;103543.06;;;2.35;84.37
79453;BME280;68899;52.116;5.404;2024-01-27T04:43:57;103543.06;;;2.35;84.45
79453;BME280;68899;52.116;5.404;2024-01-27T04:46:25;103542.16;;;2.33;84.40
79453;BME280;68899;52.116;5.404;2024-01-27T04:48:51;103545.59;;;2.32;84.40
79453;BME280;68899;52.116;5.404;2024-01-27T04:51:18;103538.63;;;2.30;84.19
79453;BME280;68899;52.116;5.404;2024-01-27T04:53:45;103542.97;;;2.29;84.59
79453;BME280;68899;52.116;5.404;2024-01-27T04:56:11;103554.19;;;2.26;84.28
79453;BME280;68899;52.116;5.404;2024-01-27T04:58:39;103548.06;;;2.24;85.24
79453;BME280;68899;52.116;5.404;2024-01-27T05:01:05;103544.56;;;2.22;84.62
79453;BME280;68899;52.116;5.404;2024-01-27T05:03:33;103540.28;;;2.24;84.80
79453;BME280;68899;52.116;5.404;2024-01-27T05:05:59;103545.44;;;2.23;85.31
79453;BME280;68899;52.116;5.404;2024-01-27T05:08:26;103536.78;;;2.22;85.21
79453;BME280;68899;52.116;5.404;2024-01-27T05:10:53;103547.19;;;2.24;84.88
79453;BME280;68899;52.116;5.404;2024-01-27T05:13:24;103539.38;;;2.22;85.25
79453;BME280;68899;52.116;5.404;2024-01-27T05:15:50;103544.59;;;2.24;85.03
79453;BME280;68899;52.116;5.404;2024-01-27T05:18:17;103547.19;;;2.22;85.23
79453;BME280;68899;52.116;5.404;2024-01-27T05:20:44;103531.56;;;2.21;84.76
79453;BME280;68899;52.116;5.404;2024-01-27T05:23:10;103521.19;;;2.21;84.70
79453;BME280;68899;52.116;5.404;2024-01-27T05:25:37;103530.69;;;2.19;85.29
79453;BME280;68899;52.116;5.404;2024-01-27T05:28:03;103520.31;;;2.20;85.29
79453;BME280;68899;52.116;5.404;2024-01-27T05:30:30;103522.03;;;2.20;85.42
79453;BME280;68899;52.116;5.404;2024-01-27T05:32:56;103518.56;;;2.19;85.64
79453;BME280;68899;52.116;5.404;2024-01-27T05:35:23;103516.78;;;2.17;85.35
79453;BME280;68899;52.116;5.404;2024-01-27T05:37:50;103510.66;;;2.13;85.61
79453;BME280;68899;52.116;5.404;2024-01-27T05:40:17;103518.44;;;2.12;85.27
79453;BME280;68899;52.116;5.404;2024-01-27T05:42:44;103527.09;;;2.11;85.88
79453;BME280;68899;52.116;5.404;2024-01-27T05:45:11;103515.88;;;2.15;85.35
79453;BME280;68899;52.116;5.404;2024-01-27T05:47:38;103517.63;;;2.16;85.68
79453;BME280;68899;52.116;5.404;2024-01-27T05:50:05;103528.88;;;2.16;86.02
79453;BME280;68899;52.116;5.404;2024-01-27T05:52:34;103522.81;;;2.14;86.03
79453;BME280;68899;52.116;5.404;2024-01-27T05:55:02;103515.00;;;2.14;85.96
79453;BME280;68899;52.116;5.404;2024-01-27T05:57:29;103522.81;;;2.14;85.58
79453;BME280;68899;52.116;5.404;2024-01-27T05:59:56;103525.41;;;2.14;85.92
79453;BME280;68899;52.116;5.404;2024-01-27T06:02:22;103519.34;;;2.14;86.43
79453;BME280;68899;52.116;5.404;2024-01-27T06:04:49;103513.28;;;2.15;86.16
79453;BME280;68899;52.116;5.404;2024-01-27T06:07:15;103510.72;;;2.16;86.33
79453;BME280;68899;52.116;5.404;2024-01-27T06:09:42;103521.06;;;2.13;85.78
79453;BME280;68899;52.116;5.404;2024-01-27T06:12:08;103521.06;;;2.13;86.34
79453;BME280;68899;52.116;5.404;2024-01-27T06:14:35;103527.97;;;2.11;85.96
79453;BME280;68899;52.116;5.404;2024-01-27T06:17:05;103526.25;;;2.13;86.29
79453;BME280;68899;52.116;5.404;2024-01-27T06:19:32;103524.50;;;2.12;86.03
79453;BME280;68899;52.116;5.404;2024-01-27T06:21:59;103529.69;;;2.11;86.07
79453;BME280;68899;52.116;5.404;2024-01-27T06:24:28;103532.28;;;2.11;86.38
79453;BME280;68899;52.116;5.404;2024-01-27T06:26:55;103527.97;;;2.11;86.15
79453;BME280;68899;52.116;5.404;2024-01-27T06:29:21;103528.81;;;2.12;86.54
79453;BME280;68899;52.116;5.404;2024-01-27T06:31:49;103527.09;;;2.12;86.40
79453;BME280;68899;52.116;5.404;2024-01-27T06:34:16;103525.34;;;2.10;86.45
79453;BME280;68899;52.116;5.404;2024-01-27T06:36:42;103525.34;;;2.10;86.75
79453;BME280;68899;52.116;5.404;2024-01-27T06:39:09;103532.19;;;2.08;86.57
79453;BME280;68899;52.116;5.404;2024-01-27T06:41:36;103529.59;;;2.08;86.52
79453;BME280;68899;52.116;5.404;2024-01-27T06:44:02;103527.00;;;2.06;85.88
79453;BME280;68899;52.116;5.404;2024-01-27T06:46:29;103527.00;;;2.06;85.75
79453;BME280;68899;52.116;5.404;2024-01-27T06:48:56;103526.97;;;2.05;86.25
79453;BME280;68899;52.116;5.404;2024-01-27T06:51:22;103530.44;;;2.05;85.88
79453;BME280;68899;52.116;5.404;2024-01-27T06:53:49;103524.38;;;2.05;85.61
79453;BME280;68899;52.116;5.404;2024-01-27T06:56:16;103534.75;;;2.05;85.79
79453;BME280;68899;52.116;5.404;2024-01-27T06:58:42;103532.16;;;2.05;85.73
79453;BME280;68899;52.116;5.404;2024-01-27T07:01:09;103531.28;;;2.04;85.70
79453;BME280;68899;52.116;5.404;2024-01-27T07:03:36;103539.97;;;2.05;85.67
79453;BME280;68899;52.116;5.404;2024-01-27T07:06:02;103538.22;;;2.05;85.69
79453;BME280;68899;52.116;5.404;2024-01-27T07:08:29;103538.19;;;2.02;86.06
79453;BME280;68899;52.116;5.404;2024-01-27T07:10:56;103544.22;;;2.01;85.24
79453;BME280;68899;52.116;5.404;2024-01-27T07:13:22;103545.91;;;1.99;85.71
79453;BME280;68899;52.116;5.404;2024-01-27T07:15:48;103552.81;;;1.98;85.60
79453;BME280;68899;52.116;5.404;2024-01-27T07:18:15;103561.47;;;1.97;85.74
79453;BME280;68899;52.116;5.404;2024-01-27T07:20:44;103562.28;;;1.95;85.17
79453;BME280;68899;52.116;5.404;2024-01-27T07:23:10;103567.47;;;1.95;85.26
79453;BME280;68899;52.116;5.404;2024-01-27T07:25:37;103567.47;;;1.93;85.37
79453;BME280;68899;52.116;5.404;2024-01-27T07:28:03;103565.75;;;1.94;85.62
79453;BME280;68899;52.116;5.404;2024-01-27T07:30:31;103567.47;;;1.93;85.51
79453;BME280;68899;52.116;5.404;2024-01-27T07:32:57;103572.66;;;1.93;85.42
79453;BME280;68899;52.116;5.404;2024-01-27T07:35:24;103572.66;;;1.93;85.42
79453;BME280;68899;52.116;5.404;2024-01-27T07:37:51;103570.94;;;1.94;85.59
79453;BME280;68899;52.116;5.404;2024-01-27T07:40:17;103573.50;;;1.92;84.92
79453;BME280;68899;52.116;5.404;2024-01-27T07:42:44;103571.78;;;1.93;85.40
79453;BME280;68899;52.116;5.404;2024-01-27T07:45:10;103580.41;;;1.92;85.31
79453;BME280;68899;52.116;5.404;2024-01-27T07:47:37;103584.75;;;1.91;85.76
79453;BME280;68899;52.116;5.404;2024-01-27T07:50:04;103582.19;;;1.94;85.59
79453;BME280;68899;52.116;5.404;2024-01-27T07:52:32;103578.75;;;1.97;85.47
79453;BME280;68899;52.116;5.404;2024-01-27T07:54:58;103581.38;;;1.98;85.94
79453;BME280;68899;52.116;5.404;2024-01-27T07:57:24;103582.31;;;2.01;86.06
79453;BME280;68899;52.116;5.404;2024-01-27T07:59:51;103585.81;;;2.04;85.47
79453;BME280;68899;52.116;5.404;2024-01-27T08:02:17;103587.59;;;2.07;86.00
79453;BME280;68899;52.116;5.404;2024-01-27T08:04:44;103588.47;;;2.07;85.92
79453;BME280;68899;52.116;5.404;2024-01-27T08:07:10;103589.41;;;2.11;85.70
79453;BME280;68899;52.116;5.404;2024-01-27T08:09:37;103592.91;;;2.13;86.02
79453;BME280;68899;52.116;5.404;2024-01-27T08:12:07;103596.41;;;2.16;85.56
79453;BME280;68899;52.116;5.404;2024-01-27T08:14:33;103585.22;;;2.19;86.53
79453;BME280;68899;52.116;5.404;2024-01-27T08:17:01;103582.66;;;2.22;86.26
79453;BME280;68899;52.116;5.404;2024-01-27T08:19:29;103584.44;;;2.24;86.32
79453;BME280;68899;52.116;5.404;2024-01-27T08:21:56;103586.22;;;2.27;86.01
79453;BME280;68899;52.116;5.404;2024-01-27T08:24:23;103587.13;;;2.31;86.05
79453;BME280;68899;52.116;5.404;2024-01-27T08:26:50;103590.69;;;2.36;86.25
79453;BME280;68899;52.116;5.404;2024-01-27T08:29:17;103596.81;;;2.41;86.17
79453;BME280;68899;52.116;5.404;2024-01-27T08:31:43;103593.44;;;2.45;86.50
79453;BME280;68899;52.116;5.404;2024-01-27T08:34:10;103598.69;;;2.48;86.34
79453;BME280;68899;52.116;5.404;2024-01-27T08:36:39;103596.19;;;2.52;86.57
79453;BME280;68899;52.116;5.404;2024-01-27T08:39:06;103601.41;;;2.55;86.92
79453;BME280;68899;52.116;5.404;2024-01-27T08:41:38;103597.16;;;2.61;86.57
79453;BME280;68899;52.116;5.404;2024-01-27T08:44:05;103586.81;;;2.65;86.79
79453;BME280;68899;52.116;5.404;2024-01-27T08:46:31;103590.38;;;2.70;86.50
79453;BME280;68899;52.116;5.404;2024-01-27T08:48:58;103599.13;;;2.77;86.36
79453;BME280;68899;52.116;5.404;2024-01-27T08:51:24;103598.34;;;2.82;86.58
79453;BME280;68899;52.116;5.404;2024-01-27T08:53:51;103592.34;;;2.87;86.56
79453;BME280;68899;52.116;5.404;2024-01-27T08:56:18;103587.25;;;2.94;86.91
79453;BME280;68899;52.116;5.404;2024-01-27T08:58:44;103600.34;;;3.00;86.50
79453;BME280;68899;52.116;5.404;2024-01-27T09:01:11;103610.84;;;3.06;86.53
79453;BME280;68899;52.116;5.404;2024-01-27T09:03:41;103610.03;;;3.12;86.80
79453;BME280;68899;52.116;5.404;2024-01-27T09:06:08;103607.50;;;3.17;86.31
79453;BME280;68899;52.116;5.404;2024-01-27T09:08:35;103605.81;;;3.20;86.68
79453;BME280;68899;52.116;5.404;2024-01-27T09:11:03;103605.00;;;3.24;86.64
79453;BME280;68899;52.116;5.404;2024-01-27T09:13:29;103602.44;;;3.27;86.64
79453;BME280;68899;52.116;5.404;2024-01-27T09:15:57;103607.63;;;3.26;86.74
79453;BME280;68899;52.116;5.404;2024-01-27T09:18:24;103609.34;;;3.24;86.85
79453;BME280;68899;52.116;5.404;2024-01-27T09:20:53;103621.50;;;3.25;86.89
79453;BME280;68899;52.116;5.404;2024-01-27T09:23:20;103617.16;;;3.25;86.70
79453;BME280;68899;52.116;5.404;2024-01-27T09:25:46;103614.53;;;3.22;86.88
79453;BME280;68899;52.116;5.404;2024-01-27T09:28:13;103618.88;;;3.22;86.80
79453;BME280;68899;52.116;5.404;2024-01-27T09:30:40;103619.75;;;3.22;86.47
79453;BME280;68899;52.116;5.404;2024-01-27T09:33:07;103619.75;;;3.24;86.51
79453;BME280;68899;52.116;5.404;2024-01-27T09:35:34;103626.72;;;3.26;86.51
79453;BME280;68899;52.116;5.404;2024-01-27T09:38:00;103627.59;;;3.28;86.48
79453;BME280;68899;52.116;5.404;2024-01-27T09:40:27;103634.53;;;3.29;86.74
79453;BME280;68899;52.116;5.404;2024-01-27T09:42:58;103632.88;;;3.31;86.88
79453;BME280;68899;52.116;5.404;2024-01-27T09:45:25;103645.03;;;3.32;86.67
79453;BME280;68899;52.116;5.404;2024-01-27T09:47:53;103649.38;;;3.33;86.66
79453;BME280;68899;52.116;5.404;2024-01-27T09:50:21;103651.09;;;3.34;86.48
79453;BME280;68899;52.116;5.404;2024-01-27T09:52:48;103659.81;;;3.38;86.91
79453;BME280;68899;52.116;5.404;2024-01-27T09:55:14;103666.81;;;3.40;86.72
79453;BME280;68899;52.116;5.404;2024-01-27T09:57:41;103661.63;;;3.42;86.68
79453;BME280;68899;52.116;5.404;2024-01-27T10:00:10;103659.91;;;3.44;86.61
79453;BME280;68899;52.116;5.404;2024-01-27T10:02:40;103671.25;;;3.48;86.34
79453;BME280;68899;52.116;5.404;2024-01-27T10:05:11;103673.88;;;3.49;86.58
79453;BME280;68899;52.116;5.404;2024-01-27T10:07:39;103674.78;;;3.53;86.79
79453;BME280;68899;52.116;5.404;2024-01-27T10:10:07;103673.13;;;3.58;86.64
79453;BME280;68899;52.116;5.404;2024-01-27T10:12:39;103666.19;;;3.60;86.41
79453;BME280;68899;52.116;5.404;2024-01-27T10:15:18;103660.13;;;3.62;86.52
79453;BME280;68899;52.116;5.404;2024-01-27T10:17:44;103667.16;;;3.68;86.20
79453;BME280;68899;52.116;5.404;2024-01-27T10:20:11;103668.06;;;3.72;86.46
79453;BME280;68899;52.116;5.404;2024-01-27T10:22:42;103669.00;;;3.77;86.19
79453;BME280;68899;52.116;5.404;2024-01-27T10:25:11;103675.09;;;3.80;86.39
79453;BME280;68899;52.116;5.404;2024-01-27T10:27:38;103671.69;;;3.83;86.54
79453;BME280;68899;52.116;5.404;2024-01-27T10:30:05;103673.44;;;3.85;86.38
79453;BME280;68899;52.116;5.404;2024-01-27T10:32:35;103677.81;;;3.89;86.17
79453;BME280;68899;52.116;5.404;2024-01-27T10:35:06;103690.91;;;3.94;86.41
79453;BME280;68899;52.116;5.404;2024-01-27T10:37:37;103693.56;;;3.98;86.40
79453;BME280;68899;52.116;5.404;2024-01-27T10:40:05;103683.19;;;4.00;86.50
79453;BME280;68899;52.116;5.404;2024-01-27T10:42:35;103691.88;;;4.02;86.41
79453;BME280;68899;52.116;5.404;2024-01-27T10:45:04;103690.22;;;4.09;86.57
79453;BME280;68899;52.116;5.404;2024-01-27T10:47:32;103686.75;;;4.11;86.72
79453;BME280;68899;52.116;5.404;2024-01-27T10:50:00;103673.75;;;4.14;86.32
79453;BME280;68899;52.116;5.404;2024-01-27T10:52:37;103675.56;;;4.18;86.40
79453;BME280;68899;52.116;5.404;2024-01-27T10:55:05;103670.38;;;4.21;86.26
79453;BME280;68899;52.116;5.404;2024-01-27T10:57:35;103648.66;;;4.24;85.85
79453;BME280;68899;52.116;5.404;2024-01-27T11:00:05;103658.22;;;4.25;85.89
79453;BME280;68899;52.116;5.404;2024-01-27T11:02:35;103653.94;;;4.27;85.92
79453;BME280;68899;52.116;5.404;2024-01-27T11:05:07;103657.41;;;4.29;85.71
79453;BME280;68899;52.116;5.404;2024-01-27T11:07:38;103654.88;;;4.35;85.61
79453;BME280;68899;52.116;5.404;2024-01-27T11:10:05;103653.16;;;4.39;85.60
79453;BME280;68899;52.116;5.404;2024-01-27T11:12:34;103654.09;;;4.44;85.79
79453;BME280;68899;52.116;5.404;2024-01-27T11:15:01;103641.06;;;4.47;85.39
79453;BME280;68899;52.116;5.404;2024-01-27T11:17:38;103647.16;;;4.49;85.10
79453;BME280;68899;52.116;5.404;2024-01-27T11:20:05;103649.81;;;4.52;84.98
79453;BME280;68899;52.116;5.404;2024-01-27T11:22:34;103654.19;;;4.54;85.06
79453;BME280;68899;52.116;5.404;2024-01-27T11:25:08;103656.81;;;4.58;84.63
79453;BME280;68899;52.116;5.404;2024-01-27T11:27:41;103655.97;;;4.62;84.39
79453;BME280;68899;52.116;5.404;2024-01-27T11:30:32;103650.78;;;4.65;84.63
79453;BME280;68899;52.116;5.404;2024-01-27T11:33:03;103648.19;;;4.66;83.91
79453;BME280;68899;52.116;5.404;2024-01-27T11:35:31;103640.41;;;4.69;84.05
79453;BME280;68899;52.116;5.404;2024-01-27T11:37:58;103636.94;;;4.72;84.06
79453;BME280;68899;52.116;5.404;2024-01-27T11:40:24;103636.94;;;4.76;83.85
79453;BME280;68899;52.116;5.404;2024-01-27T11:42:58;103631.78;;;4.81;83.40
79453;BME280;68899;52.116;5.404;2024-01-27T11:45:25;103628.31;;;4.83;83.43
79453;BME280;68899;52.116;5.404;2024-01-27T11:47:53;103631.84;;;4.87;83.35
79453;BME280;68899;52.116;5.404;2024-01-27T11:50:22;103631.84;;;4.92;83.36
79453;BME280;68899;52.116;5.404;2024-01-27T11:52:49;103621.44;;;4.95;83.09
79453;BME280;68899;52.116;5.404;2024-01-27T11:55:16;103616.22;;;4.95;82.87
79453;BME280;68899;52.116;5.404;2024-01-27T11:57:42;103615.38;;;4.97;82.46
79453;BME280;68899;52.116;5.404;2024-01-27T12:00:09;103614.50;;;5.00;82.97
79453;BME280;68899;52.116;5.404;2024-01-27T12:02:37;103616.31;;;5.05;82.76
79453;BME280;68899;52.116;5.404;2024-01-27T12:05:05;103613.69;;;5.07;82.55
79453;BME280;68899;52.116;5.404;2024-01-27T12:07:33;103617.19;;;5.09;81.84
79453;BME280;68899;52.116;5.404;2024-01-27T12:10:00;103621.53;;;5.10;82.34
79453;BME280;68899;52.116;5.404;2024-01-27T12:12:27;103625.03;;;5.14;82.57
79453;BME280;68899;52.116;5.404;2024-01-27T12:14:53;103622.44;;;5.17;82.42
79453;BME280;68899;52.116;5.404;2024-01-27T12:17:22;103612.88;;;5.20;81.82
79453;BME280;68899;52.116;5.404;2024-01-27T12:19:50;103612.91;;;5.23;81.70
79453;BME280;68899;52.116;5.404;2024-01-27T12:22:29;103612.06;;;5.26;81.84
79453;BME280;68899;52.116;5.404;2024-01-27T12:25:08;103603.34;;;5.28;81.72
79453;BME280;68899;52.116;5.404;2024-01-27T12:27:35;103593.78;;;5.29;81.46
79453;BME280;68899;52.116;5.404;2024-01-27T12:30:02;103598.16;;;5.31;81.77
79453;BME280;68899;52.116;5.404;2024-01-27T12:32:31;103597.31;;;5.35;81.50
79453;BME280;68899;52.116;5.404;2024-01-27T12:34:58;103612.09;;;5.38;81.42
79453;BME280;68899;52.116;5.404;2024-01-27T12:37:27;103604.28;;;5.39;81.37
79453;BME280;68899;52.116;5.404;2024-01-27T12:39:54;103609.53;;;5.39;81.35
79453;BME280;68899;52.116;5.404;2024-01-27T12:42:20;103599.94;;;5.40;80.72
79453;BME280;68899;52.116;5.404;2024-01-27T12:44:48;103609.47;;;5.38;80.94
79453;BME280;68899;52.116;5.404;2024-01-27T12:47:14;103614.69;;;5.36;81.19
79453;BME280;68899;52.116;5.404;2024-01-27T12:49:41;103619.06;;;5.36;81.11
79453;BME280;68899;52.116;5.404;2024-01-27T12:52:08;103624.28;;;5.34;80.92
79453;BME280;68899;52.116;5.404;2024-01-27T12:54:34;103616.44;;;5.37;80.98
79453;BME280;68899;52.116;5.404;2024-01-27T12:57:01;103619.06;;;5.37;81.41
79453;BME280;68899;52.116;5.404;2024-01-27T12:59:28;103606.00;;;5.37;80.72